createdAt,value
2018-08-03T00:01:02.085Z,90.30
2018-08-03T00:03:30.900Z,89.30
2018-08-03T00:05:59.802Z,89.00
2018-08-03T00:08:28.596Z,90.20
2018-08-03T00:10:57.405Z,91.20
2018-08-03T00:13:26.215Z,91.20
2018-08-03T00:15:55.157Z,91.10
2018-08-03T00:18:24.004Z,90.60
2018-08-03T00:20:52.870Z,91.40
2018-08-03T00:23:21.631Z,90.50
2018-08-03T00:25:50.576Z,90.50
2018-08-03T00:28:19.423Z,90.70
2018-08-03T00:30:48.217Z,91.40
2018-08-03T00:33:17.348Z,90.30
2018-08-03T00:35:46.132Z,90.00
2018-08-03T00:38:14.885Z,90.50
2018-08-03T00:40:44.037Z,90.20
2018-08-03T00:43:12.788Z,90.20
2018-08-03T00:45:41.645Z,90.00
2018-08-03T00:48:10.428Z,90.20
2018-08-03T00:50:39.200Z,90.30
2018-08-03T00:53:07.953Z,91.60
2018-08-03T00:55:36.749Z,91.50
2018-08-03T00:58:05.608Z,92.10
2018-08-03T01:00:34.505Z,92.10
2018-08-03T01:03:03.245Z,91.60
2018-08-03T01:05:32.032Z,91.80
2018-08-03T01:08:00.815Z,92.00
2018-08-03T01:10:29.652Z,92.40
2018-08-03T01:12:58.410Z,92.70
2018-08-03T01:15:27.216Z,92.70
2018-08-03T01:17:55.968Z,92.50
2018-08-03T01:20:24.725Z,92.40
2018-08-03T01:22:53.756Z,92.90
2018-08-03T01:25:22.560Z,92.60
2018-08-03T01:27:51.360Z,92.90
2018-08-03T01:30:20.160Z,92.70
2018-08-03T01:32:48.972Z,92.90
2018-08-03T01:35:17.768Z,93.70
2018-08-03T01:37:46.536Z,93.30
2018-08-03T01:40:15.364Z,93.40
2018-08-03T01:42:44.170Z,93.50
2018-08-03T01:45:12.996Z,93.90
2018-08-03T01:47:41.784Z,94.00
2018-08-03T01:50:10.536Z,93.60
2018-08-03T01:52:39.336Z,93.40
2018-08-03T01:55:08.172Z,94.00
2018-08-03T01:57:37.180Z,94.20
2018-08-03T02:00:06.289Z,94.80
2018-08-03T02:02:35.088Z,95.20
2018-08-03T02:05:03.853Z,96.10
2018-08-03T02:10:01.189Z,94.30
2018-08-03T02:12:29.984Z,94.00
2018-08-03T02:14:58.888Z,94.60
2018-08-03T02:17:27.796Z,94.30
2018-08-03T02:19:56.652Z,94.80
2018-08-03T02:22:25.933Z,94.70
2018-08-03T02:24:55.460Z,94.80
2018-08-03T02:27:24.490Z,95.40
2018-08-03T02:29:53.208Z,94.70
2018-08-03T02:32:22.001Z,95.00
2018-08-03T02:34:50.833Z,94.90
2018-08-03T02:37:19.641Z,93.50
2018-08-03T02:39:48.441Z,93.50
2018-08-03T02:42:17.192Z,93.60
2018-08-03T02:44:46.037Z,93.80
2018-08-03T02:49:43.439Z,94.00
2018-08-03T02:52:12.236Z,94.40
2018-08-03T02:54:41.073Z,94.50
2018-08-03T02:57:09.904Z,94.60
2018-08-03T02:59:38.749Z,93.70
2018-08-03T03:02:07.557Z,93.80
2018-08-03T03:04:36.416Z,93.40
2018-08-03T03:07:05.172Z,94.00
2018-08-03T03:09:33.944Z,93.70
2018-08-03T03:12:02.781Z,94.30
2018-08-03T03:14:31.548Z,95.00
2018-08-03T03:19:29.205Z,95.00
2018-08-03T03:21:57.913Z,94.80
2018-08-03T03:24:27.060Z,94.90
2018-08-03T03:26:55.961Z,95.40
2018-08-03T03:29:24.724Z,95.80
2018-08-03T03:31:53.576Z,96.00
2018-08-03T03:34:22.328Z,96.10
2018-08-03T03:36:51.164Z,96.40
2018-08-03T03:39:20.236Z,97.00
2018-08-03T03:41:49.493Z,97.30
2018-08-03T03:44:18.393Z,97.90
2018-08-03T03:46:47.197Z,96.40
2018-08-03T03:51:44.693Z,95.70
2018-08-03T03:54:13.497Z,96.30
2018-08-03T03:56:42.360Z,95.60
2018-08-03T03:59:11.215Z,96.20
2018-08-03T04:01:40.001Z,96.50
2018-08-03T04:04:09.004Z,97.00
2018-08-03T04:06:37.832Z,95.70
2018-08-03T04:09:08.890Z,95.00
2018-08-03T04:11:37.752Z,95.80
2018-08-03T04:14:06.669Z,96.00
2018-08-03T04:16:35.779Z,96.30
2018-08-03T04:19:04.572Z,96.60
2018-08-03T04:21:33.592Z,97.10
2018-08-03T04:24:02.595Z,95.70
2018-08-03T04:26:31.592Z,95.70
2018-08-03T04:29:00.349Z,95.50
2018-08-03T04:31:29.139Z,94.70
2018-08-03T04:33:57.885Z,95.30
2018-08-03T04:36:26.692Z,95.50
2018-08-03T04:38:55.514Z,95.30
2018-08-03T04:41:24.583Z,94.60
2018-08-03T04:43:53.440Z,94.90
2018-08-03T04:46:22.255Z,94.80
2018-08-03T04:48:51.276Z,94.00
2018-08-03T04:51:20.560Z,94.60
2018-08-03T04:53:49.269Z,94.00
2018-08-03T04:56:18.125Z,94.30
2018-08-03T04:58:46.929Z,94.20
2018-08-03T05:01:15.749Z,94.10
2018-08-03T05:03:44.567Z,93.90
2018-08-03T05:06:13.386Z,93.90
2018-08-03T05:08:42.188Z,94.00
2018-08-03T05:11:11.019Z,94.30
2018-08-03T05:13:39.770Z,93.50
2018-08-03T05:16:08.698Z,93.60
2018-08-03T05:18:37.510Z,93.30
2018-08-03T05:21:06.245Z,93.50
2018-08-03T05:23:35.048Z,93.90
2018-08-03T05:26:03.832Z,92.80
2018-08-03T05:28:32.812Z,92.30
2018-08-03T05:31:01.600Z,91.90
2018-08-03T05:33:30.745Z,92.30
2018-08-03T05:38:27.983Z,93.40
2018-08-03T05:40:56.776Z,93.70
2018-08-03T05:43:25.584Z,92.70
2018-08-03T05:45:54.708Z,92.20
2018-08-03T05:48:23.528Z,92.20
2018-08-03T05:50:52.643Z,92.30
2018-08-03T05:53:21.464Z,92.50
2018-08-03T05:55:50.290Z,92.80
2018-08-03T05:58:19.188Z,92.50
2018-08-03T06:00:48.200Z,92.40
2018-08-03T06:03:16.948Z,92.40
2018-08-03T06:05:45.737Z,92.40
2018-08-03T06:08:14.885Z,92.60
2018-08-03T06:10:43.674Z,92.10
2018-08-03T06:13:12.468Z,91.70
2018-08-03T06:15:41.356Z,91.50
2018-08-03T06:18:10.081Z,91.20
2018-08-03T06:20:38.962Z,91.30
2018-08-03T06:23:07.752Z,90.60
2018-08-03T06:25:36.534Z,90.80
2018-08-03T06:28:05.675Z,90.80
2018-08-03T06:30:34.490Z,91.00
2018-08-03T06:33:03.287Z,91.00
2018-08-03T06:35:32.121Z,91.30
2018-08-03T06:38:00.945Z,91.20
2018-08-03T06:40:29.701Z,90.70
2018-08-03T06:42:58.561Z,91.20
2018-08-03T06:45:27.313Z,90.60
2018-08-03T06:47:56.247Z,90.50
2018-08-03T06:50:25.061Z,90.10
2018-08-03T06:52:53.828Z,89.20
2018-08-03T06:55:22.916Z,90.50
2018-08-03T06:57:51.726Z,90.00
2018-08-03T07:00:20.567Z,89.00
2018-08-03T07:02:49.390Z,87.70
2018-08-03T07:05:18.117Z,88.70
2018-08-03T07:07:46.909Z,89.40
2018-08-03T07:10:15.718Z,88.20
2018-08-03T07:12:44.528Z,88.50
2018-08-03T07:15:13.293Z,88.60
2018-08-03T07:17:42.072Z,87.70
2018-08-03T07:20:10.998Z,86.80
2018-08-03T07:22:39.788Z,85.80
2018-08-03T07:25:08.901Z,85.10
2018-08-03T07:27:37.651Z,82.40
2018-08-03T07:30:06.580Z,84.10
2018-08-03T07:32:35.374Z,82.60
2018-08-03T07:35:04.399Z,81.60
2018-08-03T07:37:33.290Z,82.30
2018-08-03T07:40:02.157Z,81.70
2018-08-03T07:42:30.904Z,80.30
2018-08-03T07:44:59.707Z,80.60
2018-08-03T07:47:28.546Z,79.80
2018-08-03T07:49:57.456Z,78.40
2018-08-03T07:52:26.328Z,79.60
2018-08-03T07:54:55.075Z,75.40
2018-08-03T07:57:23.896Z,77.50
2018-08-03T07:59:52.714Z,76.40
2018-08-03T08:04:50.137Z,76.10
2018-08-03T08:07:18.953Z,74.60
2018-08-03T08:09:47.889Z,74.70
2018-08-03T08:12:16.573Z,73.70
2018-08-03T08:14:45.382Z,72.50
2018-08-03T08:17:14.316Z,71.30
2018-08-03T08:19:43.100Z,73.00
2018-08-03T08:22:11.928Z,73.30
2018-08-03T08:24:40.972Z,72.00
2018-08-03T08:27:09.864Z,69.10
2018-08-03T08:29:38.631Z,73.10
2018-08-03T08:32:07.453Z,67.90
2018-08-03T08:34:36.314Z,68.60
2018-08-03T08:37:05.368Z,71.60
2018-08-03T08:39:34.178Z,70.70
2018-08-03T08:42:03.051Z,69.50
2018-08-03T08:44:31.873Z,70.30
2018-08-03T08:47:00.684Z,70.00
2018-08-03T08:49:29.485Z,68.40
2018-08-03T08:51:58.372Z,69.00
2018-08-03T08:54:27.133Z,66.60
2018-08-03T08:59:24.713Z,62.90
2018-08-03T09:01:53.668Z,64.40
2018-08-03T09:04:22.415Z,66.20
2018-08-03T09:06:51.264Z,67.10
2018-08-03T09:09:20.497Z,63.10
2018-08-03T09:11:49.288Z,63.10
2018-08-03T09:14:18.456Z,63.70
2018-08-03T09:16:47.275Z,66.80
2018-08-03T09:21:44.584Z,65.20
2018-08-03T09:24:13.348Z,64.80
2018-08-03T09:26:42.216Z,65.50
2018-08-03T09:29:11.006Z,66.00
2018-08-03T09:31:39.851Z,65.10
2018-08-03T09:34:08.648Z,64.20
2018-08-03T09:36:37.514Z,63.80
2018-08-03T09:39:07.764Z,63.30
2018-08-03T09:41:36.527Z,64.90
2018-08-03T09:44:05.767Z,64.60
2018-08-03T09:46:34.687Z,64.40
2018-08-03T09:49:03.663Z,62.90
2018-08-03T09:51:32.413Z,63.50
2018-08-03T09:54:01.532Z,61.30
2018-08-03T09:56:30.313Z,59.70
2018-08-03T09:58:59.155Z,60.70
2018-08-03T10:01:27.977Z,59.90
2018-08-03T10:03:56.784Z,60.90
2018-08-03T10:06:25.596Z,60.00
2018-08-03T10:08:54.417Z,59.70
2018-08-03T10:11:23.212Z,58.10
2018-08-03T10:13:52.397Z,58.30
2018-08-03T10:16:21.468Z,59.20
2018-08-03T10:18:50.223Z,58.60
2018-08-03T10:21:19.092Z,58.40
2018-08-03T10:23:47.882Z,58.20
2018-08-03T10:26:16.787Z,57.50
2018-08-03T10:28:45.645Z,57.50
2018-08-03T10:31:14.453Z,58.50
2018-08-03T10:33:43.285Z,56.60
2018-08-03T10:36:12.080Z,57.00
2018-08-03T10:38:40.882Z,56.90
2018-08-03T10:41:09.677Z,54.70
2018-08-03T10:43:38.432Z,54.50
2018-08-03T10:46:07.240Z,54.00
2018-08-03T10:48:36.362Z,53.70
2018-08-03T10:51:06.309Z,53.70
2018-08-03T10:53:35.118Z,54.70
2018-08-03T10:56:04.237Z,54.90
2018-08-03T11:01:01.553Z,52.00
2018-08-03T11:03:30.352Z,52.90
2018-08-03T11:05:59.189Z,51.90
2018-08-03T11:08:28.000Z,48.60
2018-08-03T11:10:56.801Z,53.50
2018-08-03T11:13:25.633Z,52.40
2018-08-03T11:15:54.748Z,53.50
2018-08-03T11:18:23.553Z,52.10
2018-08-03T11:20:52.376Z,52.70
2018-08-03T11:23:21.511Z,53.50
2018-08-03T11:25:50.265Z,54.40
2018-08-03T11:28:19.020Z,53.00
2018-08-03T11:30:47.822Z,51.70
2018-08-03T11:33:16.651Z,52.50
2018-08-03T11:35:45.445Z,53.90
2018-08-03T11:38:14.233Z,52.90
2018-08-03T11:40:43.212Z,53.00
2018-08-03T11:43:12.141Z,53.80
2018-08-03T11:45:40.905Z,53.50
2018-08-03T11:48:09.831Z,53.50
2018-08-03T11:50:38.653Z,52.80
2018-08-03T11:53:07.465Z,52.80
2018-08-03T11:55:36.256Z,51.70
2018-08-03T11:58:05.204Z,52.60
2018-08-03T12:00:34.073Z,52.60
2018-08-03T12:03:02.989Z,51.20
2018-08-03T12:05:31.752Z,52.60
2018-08-03T12:08:00.539Z,50.30
2018-08-03T12:10:35.887Z,50.20
2018-08-03T12:13:04.738Z,50.50
2018-08-03T12:15:33.538Z,49.70
2018-08-03T12:18:02.309Z,49.30
2018-08-03T12:20:31.384Z,47.80
2018-08-03T12:23:00.200Z,49.90
2018-08-03T12:27:57.622Z,47.60
2018-08-03T12:30:26.396Z,47.90
2018-08-03T12:32:57.708Z,48.70
2018-08-03T12:35:27.344Z,48.40
2018-08-03T12:37:56.140Z,50.00
2018-08-03T12:40:24.945Z,48.30
2018-08-03T12:42:53.704Z,48.30
2018-08-03T12:45:22.481Z,48.80
2018-08-03T12:47:51.429Z,50.60
2018-08-03T12:50:20.220Z,50.50
2018-08-03T12:52:48.977Z,49.00
2018-08-03T12:55:17.749Z,49.60
2018-08-03T13:00:15.177Z,51.10
2018-08-03T13:02:44.026Z,52.00
2018-08-03T13:05:12.804Z,50.70
2018-08-03T13:07:42.179Z,50.50
2018-08-03T13:10:10.949Z,51.20
2018-08-03T13:12:39.760Z,49.30
2018-08-03T13:15:09.230Z,49.70
2018-08-03T13:17:38.114Z,50.80
2018-08-03T13:20:07.225Z,50.60
2018-08-03T13:22:36.045Z,52.10
2018-08-03T13:25:04.953Z,52.70
2018-08-03T13:27:33.708Z,51.40
2018-08-03T13:30:02.460Z,52.40
2018-08-03T13:32:31.304Z,51.60
2018-08-03T13:35:00.112Z,51.60
2018-08-03T13:37:28.912Z,49.90
2018-08-03T13:39:57.736Z,53.40
2018-08-03T13:42:26.873Z,49.70
2018-08-03T13:44:55.680Z,50.00
2018-08-03T13:47:24.491Z,50.00
2018-08-03T13:49:53.345Z,49.00
2018-08-03T13:52:22.221Z,50.30
2018-08-03T13:54:51.032Z,51.10
2018-08-03T13:57:19.799Z,50.40
2018-08-03T13:59:49.406Z,48.40
2018-08-03T14:02:22.137Z,49.90
2018-08-03T14:04:51.007Z,48.90
2018-08-03T14:07:19.796Z,48.60
2018-08-03T14:09:48.634Z,49.40
2018-08-03T14:12:17.520Z,49.00
2018-08-03T14:14:46.420Z,49.20
2018-08-03T14:17:15.172Z,49.30
2018-08-03T14:19:43.988Z,47.80
2018-08-03T14:24:41.409Z,47.70
2018-08-03T14:27:10.241Z,48.80
2018-08-03T14:29:39.046Z,45.40
2018-08-03T14:34:36.356Z,45.30
2018-08-03T14:37:05.176Z,47.10
2018-08-03T14:39:33.993Z,45.50
2018-08-03T14:42:02.797Z,47.00
2018-08-03T14:44:31.622Z,47.40
2018-08-03T14:47:00.433Z,47.10
2018-08-03T14:49:29.249Z,46.10
2018-08-03T14:51:58.040Z,45.10
2018-08-03T14:54:26.828Z,45.20
2018-08-03T14:56:55.689Z,44.70
2018-08-03T14:59:24.507Z,45.40
2018-08-03T15:01:53.260Z,43.70
2018-08-03T15:04:22.017Z,43.50
2018-08-03T15:06:50.845Z,44.90
2018-08-03T15:09:19.731Z,44.80
2018-08-03T15:11:48.578Z,42.80
2018-08-03T15:16:46.091Z,44.80
2018-08-03T15:19:14.904Z,44.60
2018-08-03T15:21:43.725Z,44.20
2018-08-03T15:26:42.480Z,40.60
2018-08-03T15:29:11.395Z,38.90
2018-08-03T15:31:40.165Z,38.20
2018-08-03T15:34:08.991Z,37.30
2018-08-03T15:36:38.049Z,35.60
2018-08-03T15:39:08.729Z,34.40
2018-08-03T15:41:38.319Z,35.30
2018-08-03T15:44:07.764Z,33.20
2018-08-03T15:46:36.568Z,33.10
2018-08-03T15:49:05.492Z,32.90
2018-08-03T15:51:34.298Z,34.00
2018-08-03T15:54:03.116Z,32.90
2018-08-03T15:56:31.935Z,34.40
2018-08-03T15:59:00.801Z,32.90
2018-08-03T16:01:29.647Z,33.40
2018-08-03T16:03:58.536Z,33.80
2018-08-03T16:06:27.496Z,33.50
2018-08-03T16:08:56.621Z,34.20
2018-08-03T16:11:25.437Z,33.10
2018-08-03T16:13:54.241Z,33.60
2018-08-03T16:16:23.008Z,33.10
2018-08-03T16:18:51.817Z,33.00
2018-08-03T16:21:20.724Z,34.00
2018-08-03T16:23:50.395Z,33.70
2018-08-03T16:26:19.332Z,32.60
2018-08-03T16:28:48.088Z,32.60
2018-08-03T16:31:17.273Z,32.90
2018-08-03T16:33:46.492Z,32.40
2018-08-03T16:38:44.038Z,32.60
2018-08-03T16:41:12.833Z,32.10
2018-08-03T16:43:42.055Z,31.80
2018-08-03T16:46:10.864Z,31.20
2018-08-03T16:48:39.617Z,32.50
2018-08-03T16:51:09.123Z,33.40
2018-08-03T16:53:38.133Z,35.50
2018-08-03T16:56:07.253Z,36.60
2018-08-03T16:58:36.125Z,36.70
2018-08-03T17:01:05.134Z,36.70
2018-08-03T17:03:34.264Z,37.00
2018-08-03T17:06:02.988Z,38.80
2018-08-03T17:08:31.805Z,39.30
2018-08-03T17:11:00.648Z,39.60
2018-08-03T17:13:29.466Z,41.60
2018-08-03T17:15:58.335Z,43.30
2018-08-03T17:18:27.152Z,44.80
2018-08-03T17:20:56.067Z,45.20
2018-08-03T17:23:24.895Z,46.40
2018-08-03T17:25:53.650Z,46.40
2018-08-03T17:28:22.452Z,47.30
2018-08-03T17:30:51.232Z,47.50
2018-08-03T17:33:20.082Z,49.50
2018-08-03T17:35:48.868Z,48.60
2018-08-03T17:38:18.010Z,48.60
2018-08-03T17:40:46.813Z,49.00
2018-08-03T17:43:15.636Z,49.70
2018-08-03T17:45:44.748Z,50.10
2018-08-03T17:48:13.501Z,50.70
2018-08-03T17:50:42.696Z,50.50
2018-08-03T17:53:11.600Z,52.00
2018-08-03T17:55:40.364Z,53.00
2018-08-03T17:58:09.228Z,52.00
2018-08-03T18:00:38.248Z,53.40
2018-08-03T18:03:07.012Z,53.00
2018-08-03T18:05:35.773Z,53.50
2018-08-03T18:08:04.959Z,53.70
2018-08-03T18:10:33.721Z,59.00
2018-08-03T18:13:02.525Z,59.00
2018-08-03T18:15:31.320Z,58.90
2018-08-03T18:18:00.129Z,58.00
2018-08-03T18:20:28.973Z,59.10
2018-08-03T18:25:26.670Z,61.90
2018-08-03T18:27:55.610Z,63.20
2018-08-03T18:30:24.436Z,63.70
2018-08-03T18:32:53.233Z,62.40
2018-08-03T18:35:22.070Z,66.30
2018-08-03T18:37:50.977Z,66.10
2018-08-03T18:42:48.454Z,68.80
2018-08-03T18:45:17.473Z,70.70
2018-08-03T18:47:46.192Z,68.70
2018-08-03T18:50:15.052Z,71.50
2018-08-03T18:55:12.576Z,71.00
2018-08-03T18:57:41.453Z,72.70
2018-08-03T19:00:10.512Z,73.40
2018-08-03T19:02:39.260Z,72.50
2018-08-03T19:05:08.749Z,71.30
2018-08-03T19:07:37.739Z,71.10
2018-08-03T19:10:06.727Z,70.20
2018-08-03T19:12:35.553Z,69.60
2018-08-03T19:15:04.737Z,70.10
2018-08-03T19:17:33.841Z,71.70
2018-08-03T19:20:02.593Z,74.10
2018-08-03T19:22:31.424Z,74.30
2018-08-03T19:25:00.274Z,75.50
2018-08-03T19:27:29.040Z,76.40
2018-08-03T19:29:57.903Z,77.60
2018-08-03T19:32:26.720Z,79.30
2018-08-03T19:34:55.768Z,79.60
2018-08-03T19:37:24.661Z,79.50
2018-08-03T19:39:53.412Z,78.80
2018-08-03T19:42:22.225Z,79.00
2018-08-03T19:44:51.033Z,78.80
2018-08-03T19:47:20.016Z,81.00
2018-08-03T19:49:48.813Z,81.50
2018-08-03T19:52:17.639Z,81.70
2018-08-03T19:54:46.448Z,83.10
2018-08-03T19:57:15.262Z,83.10
2018-08-03T19:59:44.529Z,82.70
2018-08-03T20:02:13.338Z,80.50
2018-08-03T20:04:42.092Z,81.00
2018-08-03T20:07:10.887Z,81.20
2018-08-03T20:09:39.642Z,83.60
2018-08-03T20:12:08.660Z,85.00
2018-08-03T20:14:37.472Z,85.50
2018-08-03T20:17:06.605Z,86.10
2018-08-03T20:19:35.656Z,86.20
2018-08-03T20:22:05.363Z,88.00
2018-08-03T20:24:34.177Z,87.20
2018-08-03T20:27:02.996Z,88.60
2018-08-03T20:29:32.790Z,85.60
2018-08-03T20:32:01.648Z,86.80
2018-08-03T20:34:30.544Z,87.30
2018-08-03T20:36:59.424Z,88.70
2018-08-03T20:39:28.290Z,90.10
2018-08-03T20:41:57.050Z,89.20
2018-08-03T20:44:25.911Z,88.70
2018-08-03T20:46:55.097Z,88.80
2018-08-03T20:49:24.428Z,88.20
2018-08-03T20:51:53.316Z,88.80
2018-08-03T20:54:22.104Z,90.20
2018-08-03T20:56:50.901Z,90.00
2018-08-03T20:59:19.944Z,89.80
2018-08-03T21:01:48.729Z,89.70
2018-08-03T21:04:17.536Z,90.00
2018-08-03T21:06:46.352Z,90.40
2018-08-03T21:11:43.604Z,90.50
2018-08-03T21:14:12.356Z,90.80
2018-08-03T21:16:41.303Z,89.60
2018-08-03T21:19:10.092Z,89.10
2018-08-03T21:21:38.940Z,89.20
2018-08-03T21:24:07.697Z,90.30
2018-08-03T21:26:36.569Z,89.90
2018-08-03T21:29:05.316Z,90.10
2018-08-03T21:31:34.111Z,90.30
2018-08-03T21:34:02.853Z,90.00
2018-08-03T21:36:31.715Z,90.20
2018-08-03T21:39:00.528Z,89.60
2018-08-03T21:41:29.648Z,89.70
2018-08-03T21:43:58.413Z,90.70
2018-08-03T21:46:27.175Z,91.00
2018-08-03T21:48:55.983Z,91.30
2018-08-03T21:51:24.731Z,91.40
2018-08-03T21:53:53.611Z,91.70
2018-08-03T21:56:22.437Z,91.70
2018-08-03T21:58:51.400Z,92.00
2018-08-03T22:01:20.223Z,92.10
2018-08-03T22:03:48.968Z,92.20
2018-08-03T22:06:17.779Z,91.90
2018-08-03T22:08:46.564Z,92.10
2018-08-03T22:11:16.230Z,92.30
2018-08-03T22:13:45.252Z,92.20
2018-08-03T22:16:14.037Z,92.40
2018-08-03T22:18:43.081Z,92.70
2018-08-03T22:21:11.865Z,92.60
2018-08-03T22:23:40.707Z,92.60
2018-08-03T22:26:09.492Z,92.80
2018-08-03T22:28:38.339Z,93.00
2018-08-03T22:31:07.093Z,93.10
2018-08-03T22:33:35.883Z,93.20
2018-08-03T22:36:04.663Z,92.80
2018-08-03T22:38:33.474Z,92.80
2018-08-03T22:41:02.223Z,92.70
2018-08-03T22:43:31.328Z,92.40
2018-08-03T22:46:00.112Z,92.10
2018-08-03T22:48:28.872Z,92.40
2018-08-03T22:50:57.667Z,92.40
2018-08-03T22:53:26.456Z,92.10
2018-08-03T22:55:55.244Z,93.00
2018-08-03T22:58:24.000Z,93.30
2018-08-03T23:00:52.906Z,93.50
2018-08-03T23:03:21.647Z,94.00
2018-08-03T23:05:50.439Z,93.70
2018-08-03T23:08:19.195Z,93.90
2018-08-03T23:10:47.976Z,94.10
2018-08-03T23:13:16.728Z,94.30
2018-08-03T23:15:45.596Z,94.80
2018-08-03T23:23:11.500Z,94.50
2018-08-03T23:25:40.350Z,95.10
2018-08-03T23:28:09.149Z,95.30
2018-08-03T23:30:37.966Z,95.10
2018-08-03T23:33:06.792Z,95.60
2018-08-03T23:35:35.613Z,95.80
2018-08-03T23:38:04.630Z,96.00
2018-08-03T23:40:33.540Z,96.20
2018-08-03T23:43:02.353Z,96.40
2018-08-03T23:45:31.164Z,96.50
2018-08-03T23:47:59.952Z,96.50
2018-08-03T23:50:28.708Z,96.70
2018-08-03T23:52:57.568Z,96.90
2018-08-03T23:55:26.365Z,97.10
2018-08-03T23:57:55.124Z,97.60
